createdAt,value
2016-04-14T00:00:53.283Z,10.25
2016-04-14T00:01:53.285Z,10.26
2016-04-14T00:02:53.319Z,10.26
2016-04-14T00:03:52.540Z,10.31
2016-04-14T00:04:53.355Z,10.3
2016-04-14T00:05:53.374Z,10.26
2016-04-14T00:06:53.377Z,10.37
2016-04-14T00:07:53.379Z,10.25
2016-04-14T00:08:53.349Z,10.28
2016-04-14T00:09:53.399Z,10.33
2016-04-14T00:10:53.401Z,10.22
2016-04-14T00:11:53.435Z,10.26
2016-04-14T00:12:53.438Z,10.31
2016-04-14T00:13:53.471Z,10.3
2016-04-14T00:14:53.490Z,10.22
2016-04-14T00:15:53.493Z,10.22
2016-04-14T00:16:53.510Z,10.19
2016-04-14T00:17:53.529Z,10.15
2016-04-14T00:18:53.563Z,10.25
2016-04-14T00:19:53.566Z,10.22
2016-04-14T00:20:53.584Z,10.2
2016-04-14T00:21:53.587Z,10.26
2016-04-14T00:22:53.605Z,10.28
2016-04-14T00:23:53.623Z,10.25
2016-04-14T00:24:53.657Z,10.28
2016-04-14T00:25:53.675Z,10.3
2016-04-14T00:26:53.679Z,10.28
2016-04-14T00:27:52.962Z,10.35
2016-04-14T00:28:53.730Z,10.35
2016-04-14T00:29:53.749Z,10.3
2016-04-14T00:30:53.767Z,10.38
2016-04-14T00:31:53.800Z,10.4
2016-04-14T00:32:53.804Z,10.28
2016-04-14T00:33:53.806Z,10.38
2016-04-14T00:34:53.825Z,10.17
2016-04-14T00:35:54.222Z,10.31
2016-04-14T00:36:53.868Z,10.3
2016-04-14T00:37:53.871Z,10.3
2016-04-14T00:38:53.905Z,10.28
2016-04-14T00:39:53.907Z,10.31
2016-04-14T00:40:53.176Z,10.2
2016-04-14T00:41:53.960Z,10.3
2016-04-14T00:42:53.962Z,10.2
2016-04-14T00:43:53.996Z,10.28
2016-04-14T00:44:53.984Z,10.26
2016-04-14T00:45:54.018Z,10.26
2016-04-14T00:46:54.037Z,10.26
2016-04-14T00:47:54.070Z,10.22
2016-04-14T00:48:54.088Z,10.25
2016-04-14T00:49:54.091Z,10.19
2016-04-14T00:50:54.109Z,10.16
2016-04-14T00:51:54.111Z,10.19
2016-04-14T00:52:54.146Z,10.16
2016-04-14T00:53:54.180Z,10.16
2016-04-14T00:54:54.183Z,10.16
2016-04-14T00:55:54.200Z,10.13
2016-04-14T00:56:54.203Z,10.01
2016-04-14T00:57:54.222Z,10.09
2016-04-14T00:58:54.239Z,10.05
2016-04-14T00:59:54.258Z,10.05
2016-04-14T01:00:54.277Z,10.02
2016-04-14T01:01:54.310Z,9.99
2016-04-14T01:02:54.360Z,10.02
2016-04-14T01:03:54.363Z,9.99
2016-04-14T01:04:54.365Z,9.91
2016-04-14T01:05:54.431Z,9.87
2016-04-14T01:06:54.449Z,9.91
2016-04-14T01:07:54.452Z,9.76
2016-04-14T01:08:54.454Z,9.79
2016-04-14T01:09:54.457Z,9.72
2016-04-14T01:10:54.741Z,9.66
2016-04-14T01:11:54.478Z,9.66
2016-04-14T01:12:54.481Z,9.59
2016-04-14T01:13:54.515Z,9.58
2016-04-14T01:14:54.532Z,9.61
2016-04-14T01:15:54.551Z,9.51
2016-04-14T01:16:54.398Z,9.46
2016-04-14T01:17:54.587Z,9.48
2016-04-14T01:18:54.428Z,9.46
2016-04-14T01:19:54.603Z,9.44
2016-04-14T01:20:54.622Z,9.51
2016-04-14T01:21:54.639Z,9.51
2016-04-14T01:22:54.674Z,9.46
2016-04-14T01:23:54.677Z,9.43
2016-04-14T01:24:54.694Z,9.46
2016-04-14T01:25:54.697Z,9.44
2016-04-14T01:26:54.731Z,9.34
2016-04-14T01:27:54.749Z,9.43
2016-04-14T01:28:54.940Z,9.36
2016-04-14T01:29:54.771Z,9.31
2016-04-14T01:30:54.804Z,9.32
2016-04-14T01:31:54.808Z,9.28
2016-04-14T01:32:54.732Z,9.29
2016-04-14T01:33:54.844Z,9.26
2016-04-14T01:34:54.862Z,9.21
2016-04-14T01:35:54.880Z,9.14
2016-04-14T01:36:54.915Z,9.19
2016-04-14T01:37:54.917Z,9.21
2016-04-14T01:38:54.920Z,9.21
2016-04-14T01:39:54.938Z,9.11
2016-04-14T01:40:54.972Z,9.16
2016-04-14T01:41:54.975Z,9.18
2016-04-14T01:42:55.009Z,9.16
2016-04-14T01:43:55.012Z,9.21
2016-04-14T01:44:55.029Z,9.29
2016-04-14T01:45:55.048Z,9.18
2016-04-14T01:46:55.066Z,9.16
2016-04-14T01:47:55.100Z,9.19
2016-04-14T01:48:55.400Z,9.21
2016-04-14T01:49:55.122Z,9.18
2016-04-14T01:50:55.124Z,9.1
2016-04-14T01:51:55.158Z,9.1
2016-04-14T01:52:55.176Z,9.06
2016-04-14T01:53:54.491Z,9.13
2016-04-14T01:54:55.181Z,9.1
2016-04-14T01:55:55.199Z,9.04
2016-04-14T01:56:55.234Z,9.02
2016-04-14T01:57:55.252Z,9.03
2016-04-14T01:58:55.255Z,9.11
2016-04-14T01:59:55.289Z,9.1
2016-04-14T02:00:55.307Z,9.06
2016-04-14T02:01:55.310Z,9.08
2016-04-14T02:02:55.328Z,9.08
2016-04-14T02:03:55.362Z,9.02
2016-04-14T02:04:55.365Z,9.02
2016-04-14T02:05:55.382Z,9.04
2016-04-14T02:06:55.401Z,8.99
2016-04-14T02:07:55.420Z,8.97
2016-04-14T02:08:55.469Z,8.95
2016-04-14T02:09:55.471Z,8.91
2016-04-14T02:10:55.506Z,8.91
2016-04-14T02:11:55.539Z,8.88
2016-04-14T02:12:55.542Z,8.95
2016-04-14T02:13:55.576Z,8.85
2016-04-14T02:14:55.579Z,8.85
2016-04-14T02:15:55.551Z,8.73
2016-04-14T02:16:55.585Z,8.73
2016-04-14T02:17:55.587Z,8.64
2016-04-14T02:18:55.589Z,8.73
2016-04-14T02:19:55.609Z,8.74
2016-04-14T02:20:55.642Z,8.81
2016-04-14T02:21:55.661Z,8.78
2016-04-14T02:22:55.664Z,8.76
2016-04-14T02:23:55.697Z,8.74
2016-04-14T02:24:55.700Z,8.76
2016-04-14T02:25:55.702Z,8.74
2016-04-14T02:26:55.736Z,8.73
2016-04-14T02:27:55.738Z,8.76
2016-04-14T02:28:55.773Z,8.84
2016-04-14T02:29:55.760Z,8.82
2016-04-14T02:30:55.809Z,8.73
2016-04-14T02:31:55.797Z,8.87
2016-04-14T02:32:55.830Z,8.85
2016-04-14T02:33:55.865Z,8.81
2016-04-14T02:34:55.868Z,8.78
2016-04-14T02:35:55.885Z,8.78
2016-04-14T02:36:55.904Z,8.84
2016-04-14T02:37:55.922Z,8.76
2016-04-14T02:38:55.924Z,8.84
2016-04-14T02:39:55.959Z,8.79
2016-04-14T02:40:55.962Z,8.74
2016-04-14T02:41:55.995Z,8.84
2016-04-14T02:42:55.998Z,8.84
2016-04-14T02:43:56.001Z,8.76
2016-04-14T02:44:56.050Z,8.73
2016-04-14T02:45:56.053Z,8.66
2016-04-14T02:46:56.071Z,8.64
2016-04-14T02:47:56.073Z,8.56
2016-04-14T02:48:56.108Z,8.69
2016-04-14T02:49:56.126Z,8.58
2016-04-14T02:50:56.128Z,8.55
2016-04-14T02:51:56.148Z,8.53
2016-04-14T02:52:56.166Z,8.51
2016-04-14T02:53:56.184Z,8.44
2016-04-14T02:54:56.202Z,8.36
2016-04-14T02:55:56.220Z,8.42
2016-04-14T02:56:56.223Z,8.41
2016-04-14T02:57:56.241Z,8.38
2016-04-14T02:58:56.260Z,8.42
2016-04-14T02:59:56.278Z,8.31
2016-04-14T03:00:56.297Z,8.36
2016-04-14T03:01:56.611Z,8.3
2016-04-14T03:02:56.318Z,8.3
2016-04-14T03:03:56.351Z,8.31
2016-04-14T03:04:56.355Z,8.19
2016-04-14T03:05:56.216Z,8.15
2016-04-14T03:06:56.406Z,8.13
2016-04-14T03:07:56.425Z,8.19
2016-04-14T03:08:56.427Z,8.1
2016-04-14T03:09:56.462Z,8.13
2016-04-14T03:10:56.448Z,8.13
2016-04-14T03:11:56.482Z,8.1
2016-04-14T03:12:56.500Z,8.12
2016-04-14T03:13:56.504Z,8.13
2016-04-14T03:14:56.537Z,8.1
2016-04-14T03:15:56.539Z,8.08
2016-04-14T03:16:56.559Z,8
2016-04-14T03:17:56.576Z,8.16
2016-04-14T03:18:56.595Z,8
2016-04-14T03:19:56.598Z,7.95
2016-04-14T03:20:56.631Z,8.01
2016-04-14T03:21:56.665Z,7.95
2016-04-14T03:22:56.653Z,7.95
2016-04-14T03:23:56.702Z,7.95
2016-04-14T03:24:56.689Z,7.94
2016-04-14T03:25:56.723Z,7.95
2016-04-14T03:26:56.741Z,7.87
2016-04-14T03:27:56.745Z,7.93
2016-04-14T03:28:56.747Z,7.85
2016-04-14T03:29:56.781Z,7.87
2016-04-14T03:30:56.783Z,7.85
2016-04-14T03:31:56.802Z,7.94
2016-04-14T03:32:56.820Z,7.94
2016-04-14T03:33:56.838Z,7.87
2016-04-14T03:34:56.857Z,7.79
2016-04-14T03:35:56.874Z,7.83
2016-04-14T03:36:56.893Z,7.83
2016-04-14T03:37:56.912Z,7.79
2016-04-14T03:38:56.930Z,7.9
2016-04-14T03:39:56.932Z,7.87
2016-04-14T03:40:56.966Z,7.88
2016-04-14T03:41:56.985Z,7.82
2016-04-14T03:42:56.987Z,7.85
2016-04-14T03:43:56.990Z,7.82
2016-04-14T03:44:57.024Z,7.82
2016-04-14T03:45:57.042Z,7.82
2016-04-14T03:46:57.046Z,7.83
2016-04-14T03:47:57.079Z,7.85
2016-04-14T03:48:57.097Z,7.82
2016-04-14T03:49:57.101Z,7.83
2016-04-14T03:50:57.118Z,7.93
2016-04-14T03:51:57.137Z,7.93
2016-04-14T03:52:57.139Z,7.87
2016-04-14T03:53:57.158Z,7.91
2016-04-14T03:54:57.176Z,7.87
2016-04-14T03:55:57.211Z,7.91
2016-04-14T03:56:57.213Z,7.9
2016-04-14T03:57:57.246Z,7.93
2016-04-14T03:58:57.233Z,7.95
2016-04-14T03:59:57.267Z,7.94
2016-04-14T04:00:57.286Z,7.88
2016-04-14T04:01:57.304Z,7.98
2016-04-14T04:02:57.307Z,7.93
2016-04-14T04:03:57.325Z,7.97
2016-04-14T04:04:57.343Z,7.93
2016-04-14T04:05:57.362Z,7.97
2016-04-14T04:06:57.380Z,8.03
2016-04-14T04:07:57.382Z,8.01
2016-04-14T04:08:57.402Z,8.05
2016-04-14T04:09:57.435Z,8.12
2016-04-14T04:10:57.421Z,8.1
2016-04-14T04:11:57.457Z,8.06
2016-04-14T04:12:57.474Z,8
2016-04-14T04:13:57.493Z,8.05
2016-04-14T04:14:57.699Z,7.9
2016-04-14T04:15:57.529Z,7.98
2016-04-14T04:16:57.563Z,7.94
2016-04-14T04:17:57.598Z,7.95
2016-04-14T04:18:57.615Z,7.91
2016-04-14T04:19:57.618Z,7.91
2016-04-14T04:20:57.637Z,7.93
2016-04-14T04:21:57.640Z,7.87
2016-04-14T04:22:57.642Z,7.87
2016-04-14T04:23:57.661Z,7.85
2016-04-14T04:24:57.663Z,7.85
2016-04-14T04:25:57.681Z,7.98
2016-04-14T04:26:57.700Z,7.91
2016-04-14T04:27:57.718Z,7.85
2016-04-14T04:28:57.720Z,7.91
2016-04-14T04:29:57.754Z,7.91
2016-04-14T04:30:57.773Z,7.91
2016-04-14T04:31:57.807Z,7.9
2016-04-14T04:32:57.810Z,7.87
2016-04-14T04:33:57.813Z,7.82
2016-04-14T04:34:57.830Z,7.91
2016-04-14T04:35:57.849Z,7.87
2016-04-14T04:36:57.852Z,7.94
2016-04-14T04:37:57.885Z,7.9
2016-04-14T04:38:57.888Z,7.93
2016-04-14T04:39:57.921Z,7.87
2016-04-14T04:40:57.987Z,7.82
2016-04-14T04:41:57.927Z,7.94
2016-04-14T04:42:57.946Z,7.95
2016-04-14T04:43:57.229Z,7.93
2016-04-14T04:44:57.982Z,7.98
2016-04-14T04:45:58.016Z,7.95
2016-04-14T04:46:58.018Z,7.94
2016-04-14T04:47:58.053Z,7.98
2016-04-14T04:48:58.056Z,8.01
2016-04-14T04:49:58.073Z,8.12
2016-04-14T04:50:58.076Z,8.1
2016-04-14T04:51:58.095Z,8.08
2016-04-14T04:52:58.114Z,8.13
2016-04-14T04:53:58.131Z,8.12
2016-04-14T04:54:58.165Z,8.08
2016-04-14T04:55:58.481Z,8.1
2016-04-14T04:56:58.186Z,8.18
2016-04-14T04:57:58.205Z,8.16
2016-04-14T04:58:58.207Z,8.15
2016-04-14T04:59:58.225Z,8.15
2016-04-14T05:00:58.261Z,8.15
2016-04-14T05:01:58.278Z,8.23
2016-04-14T05:02:58.280Z,8.24
2016-04-14T05:03:58.300Z,8.27
2016-04-14T05:04:58.317Z,8.31
2016-04-14T05:05:58.336Z,8.33
2016-04-14T05:06:58.338Z,8.38
2016-04-14T05:07:58.372Z,8.49
2016-04-14T05:08:58.374Z,8.44
2016-04-14T05:09:58.394Z,8.58
2016-04-14T05:10:58.427Z,8.56
2016-04-14T05:11:58.446Z,8.61
2016-04-14T05:12:58.447Z,8.76
2016-04-14T05:13:58.557Z,8.78
2016-04-14T05:14:58.572Z,8.85
2016-04-14T05:15:58.651Z,8.89
2016-04-14T05:16:58.699Z,9.02
2016-04-14T05:17:58.798Z,9.03
2016-04-14T05:18:58.818Z,9.22
2016-04-14T05:19:58.836Z,9.28
2016-04-14T05:20:58.855Z,9.32
2016-04-14T05:21:58.890Z,9.36
2016-04-14T05:22:58.937Z,9.37
2016-04-14T05:23:59.008Z,9.37
2016-04-14T05:24:58.984Z,9.43
2016-04-14T05:25:59.055Z,9.41
2016-04-14T05:26:59.033Z,9.47
2016-04-14T05:27:59.087Z,9.54
2016-04-14T05:28:59.092Z,9.54
2016-04-14T05:29:59.112Z,9.62
2016-04-14T05:30:59.102Z,9.73
2016-04-14T05:31:59.107Z,9.72
2016-04-14T05:32:59.127Z,9.69
2016-04-14T05:33:59.146Z,9.76
2016-04-14T05:34:59.150Z,9.82
2016-04-14T05:35:59.185Z,9.77
2016-04-14T05:36:59.188Z,9.74
2016-04-14T05:37:59.222Z,9.92
2016-04-14T05:38:59.225Z,9.89
2016-04-14T05:39:59.244Z,9.95
2016-04-14T05:40:59.386Z,9.95
2016-04-14T05:41:59.296Z,10.01
2016-04-14T05:42:59.313Z,10.01
2016-04-14T05:43:59.629Z,9.95
2016-04-14T05:44:59.335Z,10.02
2016-04-14T05:45:59.354Z,10.1
2016-04-14T05:46:59.388Z,10.19
2016-04-14T05:47:59.390Z,10.12
2016-04-14T05:49:02.408Z,10.26
2016-04-14T05:49:59.427Z,10.33
2016-04-14T05:50:59.429Z,10.37
2016-04-14T05:51:59.463Z,10.4
2016-04-14T05:52:59.794Z,10.4
2016-04-14T05:53:59.484Z,10.46
2016-04-14T05:54:59.518Z,10.49
2016-04-14T05:55:59.536Z,10.64
2016-04-14T05:56:59.554Z,10.67
2016-04-14T05:57:59.401Z,10.69
2016-04-14T05:58:59.592Z,10.75
2016-04-14T05:59:59.595Z,10.81
2016-04-14T06:00:59.612Z,10.76
2016-04-14T06:01:59.647Z,10.79
2016-04-14T06:02:59.650Z,10.79
2016-04-14T06:03:59.667Z,10.82
2016-04-14T06:04:59.686Z,10.94
2016-04-14T06:05:59.703Z,11.04
2016-04-14T06:06:59.722Z,10.94
2016-04-14T06:07:58.974Z,10.99
2016-04-14T06:08:59.758Z,10.97
2016-04-14T06:09:59.777Z,11.02
2016-04-14T06:10:59.795Z,11
2016-04-14T06:11:59.813Z,11.08
2016-04-14T06:12:59.832Z,11.12
2016-04-14T06:13:59.849Z,11.1
2016-04-14T06:14:59.868Z,11.11
2016-04-14T06:15:59.902Z,11.11
2016-04-14T06:16:59.937Z,11.11
2016-04-14T06:17:59.923Z,11
2016-04-14T06:18:59.943Z,10.96
2016-04-14T06:19:59.960Z,10.94
2016-04-14T06:20:59.979Z,10.94
2016-04-14T06:21:59.981Z,10.92
2016-04-14T06:22:59.999Z,10.79
2016-04-14T06:24:00.034Z,10.86
2016-04-14T06:25:00.052Z,10.72
2016-04-14T06:26:00.071Z,10.82
2016-04-14T06:27:00.073Z,10.81
2016-04-14T06:28:00.092Z,10.79
2016-04-14T06:29:00.126Z,10.75
2016-04-14T06:30:00.128Z,10.92
2016-04-14T06:31:00.162Z,10.93
2016-04-14T06:32:00.164Z,10.93
2016-04-14T06:33:00.183Z,11.02
2016-04-14T06:34:00.200Z,11.02
2016-04-14T06:35:00.219Z,11.05
2016-04-14T06:36:00.238Z,11.07
2016-04-14T06:37:00.255Z,11.18
2016-04-14T06:38:00.274Z,11.15
2016-04-14T06:39:00.292Z,11.17
2016-04-14T06:40:00.327Z,11.23
2016-04-14T06:41:00.345Z,11.4
2016-04-14T06:42:00.347Z,11.35
2016-04-14T06:43:00.366Z,11.52
2016-04-14T06:44:00.384Z,11.55
2016-04-14T06:45:00.402Z,11.5
2016-04-14T06:46:00.546Z,11.55
2016-04-14T06:47:00.471Z,11.37
2016-04-14T06:48:00.457Z,11.54
2016-04-14T06:49:00.476Z,11.55
2016-04-14T06:50:00.478Z,11.57
2016-04-14T06:51:00.809Z,11.62
2016-04-14T06:52:00.531Z,11.75
2016-04-14T06:53:00.549Z,11.63
2016-04-14T06:54:00.568Z,11.62
2016-04-14T06:55:00.585Z,11.57
2016-04-14T06:56:00.604Z,11.47
2016-04-14T06:57:00.623Z,11.37
2016-04-14T06:58:00.640Z,11.44
2016-04-14T06:59:00.644Z,11.35
2016-04-14T07:00:00.678Z,11.35
2016-04-14T07:01:00.696Z,11.29
2016-04-14T07:02:00.715Z,11.26
2016-04-14T07:03:00.748Z,11.19
2016-04-14T07:04:00.768Z,11.17
2016-04-14T07:05:00.770Z,11.3
2016-04-14T07:06:00.788Z,11.18
2016-04-14T07:07:00.802Z,11.15
2016-04-14T07:08:00.710Z,11.23
2016-04-14T07:09:00.832Z,11.27
2016-04-14T07:10:00.866Z,11.3
2016-04-14T07:11:00.702Z,11.54
2016-04-14T07:12:00.894Z,11.63
2016-04-14T07:13:00.756Z,11.66
2016-04-14T07:14:00.766Z,11.73
2016-04-14T07:15:00.784Z,11.8
2016-04-14T07:16:00.803Z,11.68
2016-04-14T07:17:01.069Z,11.7
2016-04-14T07:18:01.038Z,11.52
2016-04-14T07:19:01.025Z,11.48
2016-04-14T07:20:01.044Z,11.45
2016-04-14T07:21:01.093Z,11.48
2016-04-14T07:22:01.080Z,11.57
2016-04-14T07:23:01.082Z,11.55
2016-04-14T07:24:01.117Z,11.55
2016-04-14T07:25:01.135Z,11.63
2016-04-14T07:26:01.153Z,11.75
2016-04-14T07:27:01.328Z,11.84
2016-04-14T07:28:01.220Z,11.83
2016-04-14T07:29:01.223Z,11.95
2016-04-14T07:30:01.289Z,12.15
2016-04-14T07:31:01.292Z,12.22
2016-04-14T07:32:01.309Z,12.31
2016-04-14T07:33:01.281Z,12.2
2016-04-14T07:34:01.300Z,12.22
2016-04-14T07:35:01.333Z,12.27
2016-04-14T07:36:01.336Z,12.29
2016-04-14T07:37:01.355Z,12.37
2016-04-14T07:38:01.373Z,12.39
2016-04-14T07:39:01.408Z,12.42
2016-04-14T07:40:01.411Z,12.45
2016-04-14T07:41:01.428Z,12.47
2016-04-14T07:42:01.462Z,12.55
2016-04-14T07:43:01.464Z,12.58
2016-04-14T07:44:01.483Z,12.5
2016-04-14T07:45:01.502Z,12.35
2016-04-14T07:46:01.535Z,12.29
2016-04-14T07:47:01.538Z,12.18
2016-04-14T07:48:01.571Z,12.12
2016-04-14T07:49:01.590Z,12.07
2016-04-14T07:50:01.437Z,12.12
2016-04-14T07:51:01.610Z,12.15
2016-04-14T07:52:01.646Z,12.21
2016-04-14T07:53:01.663Z,12.28
2016-04-14T07:54:01.682Z,12.24
2016-04-14T07:55:01.701Z,12.31
2016-04-14T07:56:01.734Z,12.53
2016-04-14T07:57:01.737Z,12.5
2016-04-14T07:58:01.770Z,12.57
2016-04-14T07:59:01.804Z,12.35
2016-04-14T08:00:01.041Z,12.31
2016-04-14T08:01:01.809Z,12.31
2016-04-14T08:02:01.828Z,12.4
2016-04-14T08:03:01.847Z,12.53
2016-04-14T08:04:01.850Z,12.64
2016-04-14T08:05:01.883Z,12.57
2016-04-14T08:06:01.917Z,12.67
2016-04-14T08:07:01.936Z,12.78
2016-04-14T08:08:01.922Z,12.76
2016-04-14T08:09:01.813Z,12.9
2016-04-14T08:10:01.965Z,12.91
2016-04-14T08:11:01.999Z,12.85
2016-04-14T08:12:01.251Z,12.79
2016-04-14T08:13:02.036Z,12.68
2016-04-14T08:14:02.039Z,12.7
2016-04-14T08:15:02.072Z,12.62
2016-04-14T08:16:02.075Z,12.53
2016-04-14T08:17:02.109Z,12.7
2016-04-14T08:18:02.128Z,12.7
2016-04-14T08:19:02.145Z,12.7
2016-04-14T08:20:02.164Z,12.6
2016-04-14T08:21:02.166Z,12.87
2016-04-14T08:22:02.200Z,12.93
2016-04-14T08:23:02.219Z,12.97
2016-04-14T08:24:02.237Z,13.05
2016-04-14T08:25:02.255Z,13.15
2016-04-14T08:26:02.273Z,13.08
2016-04-14T08:27:02.307Z,13.22
2016-04-14T08:28:02.623Z,13.44
2016-04-14T08:29:02.344Z,13.42
2016-04-14T08:30:02.347Z,13.42
2016-04-14T08:31:02.365Z,13.25
2016-04-14T08:32:02.384Z,13.22
2016-04-14T08:33:02.418Z,13.3
2016-04-14T08:34:02.435Z,13.37
2016-04-14T08:35:02.438Z,13.37
2016-04-14T08:36:02.487Z,13.53
2016-04-14T08:37:02.529Z,13.72
2016-04-14T08:38:02.517Z,13.86
2016-04-14T08:39:02.551Z,13.9
2016-04-14T08:40:02.554Z,13.95
2016-04-14T08:41:02.556Z,14.05
2016-04-14T08:42:02.575Z,14.15
2016-04-14T08:43:02.625Z,14.18
2016-04-14T08:44:02.627Z,14.25
2016-04-14T08:45:02.661Z,14.23
2016-04-14T08:46:02.678Z,14.29
2016-04-14T08:47:02.681Z,14.41
2016-04-14T08:48:02.716Z,14.51
2016-04-14T08:49:02.718Z,14.53
2016-04-14T08:50:02.752Z,14.48
2016-04-14T08:51:02.848Z,14.5
2016-04-14T08:52:02.804Z,14.63
2016-04-14T08:53:02.807Z,14.35
2016-04-14T08:54:02.841Z,14.35
2016-04-14T08:55:02.860Z,14.22
2016-04-14T08:56:02.862Z,14.03
2016-04-14T08:57:02.880Z,14.22
2016-04-14T08:58:02.914Z,14.33
2016-04-14T08:59:02.948Z,14.5
2016-04-14T09:00:02.935Z,14.53
2016-04-14T09:01:02.813Z,14.44
2016-04-14T09:02:02.988Z,14.32
2016-04-14T09:03:03.022Z,14.35
2016-04-14T09:04:03.009Z,14.22
2016-04-14T09:05:03.043Z,14.1
2016-04-14T09:06:03.077Z,13.99
2016-04-14T09:07:03.095Z,13.96
2016-04-14T09:08:03.113Z,14.04
2016-04-14T09:09:03.115Z,14.14
2016-04-14T09:10:03.150Z,14.22
2016-04-14T09:11:03.167Z,14.17
2016-04-14T09:12:03.202Z,14.28
2016-04-14T09:13:03.220Z,14.4
2016-04-14T09:14:03.222Z,14.3
2016-04-14T09:15:03.257Z,14.35
2016-04-14T09:16:03.275Z,14.28
2016-04-14T09:17:03.294Z,14.48
2016-04-14T09:18:03.312Z,14.66
2016-04-14T09:19:03.346Z,14.86
2016-04-14T09:20:03.349Z,14.85
2016-04-14T09:21:03.382Z,15.03
2016-04-14T09:22:03.385Z,15.14
2016-04-14T09:23:03.418Z,15.4
2016-04-14T09:24:03.734Z,15.49
2016-04-14T09:25:03.455Z,15.55
2016-04-14T09:26:03.474Z,15.54
2016-04-14T09:27:03.382Z,15.44
2016-04-14T09:28:03.527Z,15.28
2016-04-14T09:29:03.529Z,15.04
2016-04-14T09:30:03.563Z,14.88
2016-04-14T09:31:03.581Z,14.68
2016-04-14T09:32:03.599Z,14.58
2016-04-14T09:33:03.618Z,14.53
2016-04-14T09:34:03.636Z,14.45
2016-04-14T09:35:03.670Z,14.44
2016-04-14T09:36:03.673Z,14.47
2016-04-14T09:37:03.723Z,14.41
2016-04-14T09:38:03.710Z,14.47
2016-04-14T09:39:03.743Z,14.58
2016-04-14T09:40:03.762Z,14.6
2016-04-14T09:41:03.780Z,14.68
2016-04-14T09:42:03.704Z,14.58
2016-04-14T09:43:03.831Z,14.44
2016-04-14T09:44:03.834Z,14.28
2016-04-14T09:45:03.884Z,14.23
2016-04-14T09:46:03.902Z,14.15
2016-04-14T09:47:03.921Z,14.2
2016-04-14T09:48:03.924Z,14.3
2016-04-14T09:49:03.958Z,14.4
2016-04-14T09:50:03.960Z,14.32
2016-04-14T09:51:03.978Z,14.28
2016-04-14T09:52:04.013Z,14.32
2016-04-14T09:53:04.030Z,14.41
2016-04-14T09:54:04.049Z,14.63
2016-04-14T09:55:04.082Z,14.65
2016-04-14T09:56:04.101Z,14.88
2016-04-14T09:57:04.494Z,15.11
2016-04-14T09:58:04.138Z,15.43
2016-04-14T09:59:04.140Z,15.52
2016-04-14T10:00:04.174Z,15.57
2016-04-14T10:01:04.193Z,15.68
2016-04-14T10:02:04.212Z,15.7
2016-04-14T10:03:04.229Z,15.7
2016-04-14T10:04:04.263Z,15.79
2016-04-14T10:05:04.266Z,15.77
2016-04-14T10:06:04.284Z,15.68
2016-04-14T10:07:04.319Z,15.51
2016-04-14T10:08:04.353Z,15.28
2016-04-14T10:09:03.606Z,15.21
2016-04-14T10:10:04.374Z,15.28
2016-04-14T10:11:04.392Z,15.57
2016-04-14T10:12:04.332Z,15.7
2016-04-14T10:13:04.444Z,15.76
2016-04-14T10:14:04.462Z,15.7
2016-04-14T10:15:04.480Z,15.62
2016-04-14T10:16:04.499Z,15.61
2016-04-14T10:17:04.517Z,15.61
2016-04-14T10:18:04.536Z,15.67
2016-04-14T10:19:04.554Z,15.8
2016-04-14T10:20:04.588Z,15.7
2016-04-14T10:21:04.606Z,15.59
2016-04-14T10:22:04.640Z,15.52
2016-04-14T10:23:04.643Z,15.7
2016-04-14T10:24:04.677Z,15.92
2016-04-14T10:25:04.710Z,15.88
2016-04-14T10:26:04.744Z,15.97
2016-04-14T10:27:04.903Z,16.05
2016-04-14T10:28:04.749Z,16.2
2016-04-14T10:29:04.784Z,16.41
2016-04-14T10:30:04.802Z,16.53
2016-04-14T10:31:04.805Z,16.41
2016-04-14T10:32:04.838Z,16.32
2016-04-14T10:33:04.873Z,16.15
2016-04-14T10:34:05.094Z,16.24
2016-04-14T10:35:04.893Z,16.39
2016-04-14T10:36:04.929Z,16.39
2016-04-14T10:37:04.977Z,16.42
2016-04-14T10:38:04.965Z,16.53
2016-04-14T10:39:04.983Z,16.33
2016-04-14T10:40:04.720Z,16.17
2016-04-14T10:41:05.035Z,15.98
2016-04-14T10:42:05.178Z,16.02
2016-04-14T10:43:05.072Z,16.04
2016-04-14T10:44:05.089Z,15.97
2016-04-14T10:45:05.124Z,16.08
2016-04-14T10:46:05.142Z,16.08
2016-04-14T10:47:05.161Z,16
2016-04-14T10:48:05.179Z,16.15
2016-04-14T10:49:05.213Z,16.2
2016-04-14T10:50:05.231Z,16.09
2016-04-14T10:51:05.249Z,16.05
2016-04-14T10:52:05.267Z,15.83
2016-04-14T10:53:05.301Z,15.79
2016-04-14T10:54:05.319Z,15.76
2016-04-14T10:55:05.338Z,15.7
2016-04-14T10:56:05.357Z,15.65
2016-04-14T10:57:05.531Z,15.59
2016-04-14T10:58:05.393Z,15.67
2016-04-14T10:59:05.427Z,15.8
2016-04-14T11:00:05.429Z,15.76
2016-04-14T11:01:05.510Z,16.01
2016-04-14T11:02:05.513Z,16.04
2016-04-14T11:03:05.547Z,16.13
2016-04-14T11:04:05.535Z,16.33
2016-04-14T11:05:05.585Z,16.5
2016-04-14T11:06:05.571Z,16.71
2016-04-14T11:07:05.590Z,16.96
2016-04-14T11:08:05.623Z,17.16
2016-04-14T11:09:05.626Z,17.36
2016-04-14T11:10:05.660Z,17.36
2016-04-14T11:11:05.662Z,17.34
2016-04-14T11:12:05.743Z,17.15
2016-04-14T11:13:05.730Z,16.97
2016-04-14T11:14:05.749Z,16.94
2016-04-14T11:15:05.751Z,16.93
2016-04-14T11:16:05.770Z,16.91
2016-04-14T11:17:05.803Z,17.01
2016-04-14T11:18:05.822Z,17.02
2016-04-14T11:19:05.762Z,17.06
2016-04-14T11:20:05.702Z,17.04
2016-04-14T11:21:05.892Z,16.93
2016-04-14T11:22:05.926Z,16.96
2016-04-14T11:23:05.929Z,16.83
2016-04-14T11:24:05.963Z,16.6
2016-04-14T11:25:05.981Z,16.6
2016-04-14T11:26:06.000Z,16.61
2016-04-14T11:27:06.018Z,16.71
2016-04-14T11:28:06.005Z,16.96
2016-04-14T11:29:06.085Z,17.14
2016-04-14T11:30:06.104Z,17.38
2016-04-14T11:31:06.107Z,17.57
2016-04-14T11:32:06.157Z,17.68
2016-04-14T11:33:06.144Z,17.7
2016-04-14T11:34:06.177Z,17.6
2016-04-14T11:35:06.211Z,17.7
2016-04-14T11:36:06.229Z,17.76
2016-04-14T11:37:06.247Z,17.98
2016-04-14T11:38:06.562Z,18.19
2016-04-14T11:39:06.299Z,18.29
2016-04-14T11:40:06.317Z,18.22
2016-04-14T11:41:06.352Z,18.26
2016-04-14T11:42:06.370Z,18.31
2016-04-14T11:43:06.389Z,18.43
2016-04-14T11:44:06.406Z,18.41
2016-04-14T11:45:06.409Z,18.26
2016-04-14T11:46:06.443Z,18.15
2016-04-14T11:47:06.477Z,17.87
2016-04-14T11:48:06.496Z,17.82
2016-04-14T11:49:06.576Z,17.6
2016-04-14T11:50:06.584Z,17.72
2016-04-14T11:51:06.587Z,17.85
2016-04-14T11:52:06.636Z,17.85
2016-04-14T11:53:06.670Z,18.08
2016-04-14T11:54:06.673Z,18.11
2016-04-14T11:55:06.676Z,18.13
2016-04-14T11:56:06.959Z,18.08
2016-04-14T11:57:06.712Z,18.05
2016-04-14T11:58:06.730Z,18.01
2016-04-14T11:59:06.748Z,18.03
2016-04-14T12:00:06.767Z,18.08
2016-04-14T12:01:06.785Z,18.08
2016-04-14T12:02:06.820Z,17.9
2016-04-14T12:03:06.822Z,17.65
2016-04-14T12:04:06.840Z,17.45
2016-04-14T12:05:06.874Z,17.3
2016-04-14T12:06:06.908Z,17.26
2016-04-14T12:07:06.942Z,17.12
2016-04-14T12:08:06.944Z,17.16
2016-04-14T12:09:06.963Z,17.26
2016-04-14T12:10:06.996Z,17.36
2016-04-14T12:11:07.016Z,17.52
2016-04-14T12:12:07.033Z,17.54
2016-04-14T12:13:07.052Z,17.46
2016-04-14T12:14:07.069Z,17.41
2016-04-14T12:15:07.104Z,17.36
2016-04-14T12:16:07.138Z,17.38
2016-04-14T12:17:07.157Z,17.38
2016-04-14T12:18:07.175Z,17.41
2016-04-14T12:19:07.193Z,17.36
2016-04-14T12:20:07.211Z,17.38
2016-04-14T12:21:07.229Z,17.45
2016-04-14T12:22:07.263Z,17.41
2016-04-14T12:23:07.141Z,17.24
2016-04-14T12:24:07.300Z,17.14
2016-04-14T12:25:07.349Z,16.81
2016-04-14T12:26:07.352Z,16.61
2016-04-14T12:27:07.370Z,16.57
2016-04-14T12:28:07.405Z,16.68
2016-04-14T12:29:07.470Z,16.57
2016-04-14T12:30:07.473Z,16.6
2016-04-14T12:31:07.475Z,16.54
2016-04-14T12:32:07.478Z,16.61
2016-04-14T12:33:07.496Z,16.58
2016-04-14T12:34:07.530Z,16.58
2016-04-14T12:35:07.564Z,16.65
2016-04-14T12:36:07.613Z,16.61
2016-04-14T12:37:07.569Z,16.74
2016-04-14T12:38:07.603Z,16.96
2016-04-14T12:39:07.637Z,17.06
2016-04-14T12:40:07.640Z,17.3
2016-04-14T12:41:07.674Z,17.52
2016-04-14T12:42:07.708Z,17.71
2016-04-14T12:43:07.726Z,17.94
2016-04-14T12:44:07.729Z,18.28
2016-04-14T12:45:07.763Z,18.15
2016-04-14T12:46:07.797Z,18.16
2016-04-14T12:47:07.800Z,18.23
2016-04-14T12:48:07.818Z,18.03
2016-04-14T12:49:07.852Z,17.92
2016-04-14T12:50:07.885Z,17.78
2016-04-14T12:51:07.888Z,17.72
2016-04-14T12:52:07.921Z,17.57
2016-04-14T12:53:07.956Z,17.6
2016-04-14T12:54:07.959Z,17.52
2016-04-14T12:55:07.993Z,17.56
2016-04-14T12:56:08.012Z,17.72
2016-04-14T12:57:08.030Z,17.74
2016-04-14T12:58:08.048Z,17.94
2016-04-14T12:59:08.082Z,18.11
2016-04-14T13:00:08.100Z,18.34
2016-04-14T13:01:08.134Z,18.16
2016-04-14T13:02:08.448Z,18.2
2016-04-14T13:03:08.170Z,18.26
2016-04-14T13:04:08.204Z,18.1
2016-04-14T13:05:08.222Z,18.03
2016-04-14T13:06:08.242Z,18.13